sensor_id;sensor_type;location;lat;lon;timestamp;temperature;humidity
19829;DHT22;10075;50.924;4.396;2023-11-19T00:00:31;14.70;99.90
19829;DHT22;10075;50.924;4.396;2023-11-19T00:02:57;14.60;99.90
19829;DHT22;10075;50.924;4.396;2023-11-19T00:05:26;14.60;99.90
19829;DHT22;10075;50.924;4.396;2023-11-19T00:07:54;14.40;99.90
19829;DHT22;10075;50.924;4.396;2023-11-19T00:10:21;14.50;99.90
19829;DHT22;10075;50.924;4.396;2023-11-19T00:12:49;14.50;99.90
19829;DHT22;10075;50.924;4.396;2023-11-19T00:15:16;14.60;99.90
19829;DHT22;10075;50.924;4.396;2023-11-19T00:17:45;14.70;99.90
19829;DHT22;10075;50.924;4.396;2023-11-19T00:20:13;14.70;99.90
19829;DHT22;10075;50.924;4.396;2023-11-19T00:22:42;14.50;99.90
19829;DHT22;10075;50.924;4.396;2023-11-19T00:25:09;14.60;99.90
19829;DHT22;10075;50.924;4.396;2023-11-19T00:27:37;14.60;99.90
19829;DHT22;10075;50.924;4.396;2023-11-19T00:30:05;14.60;99.90
19829;DHT22;10075;50.924;4.396;2023-11-19T00:32:32;14.60;99.90
19829;DHT22;10075;50.924;4.396;2023-11-19T00:34:59;14.60;99.90
19829;DHT22;10075;50.924;4.396;2023-11-19T00:37:26;14.60;99.90
19829;DHT22;10075;50.924;4.396;2023-11-19T00:39:55;14.60;99.90
19829;DHT22;10075;50.924;4.396;2023-11-19T00:42:22;14.70;99.90
19829;DHT22;10075;50.924;4.396;2023-11-19T00:44:49;14.60;99.90
19829;DHT22;10075;50.924;4.396;2023-11-19T00:47:16;14.60;99.90
19829;DHT22;10075;50.924;4.396;2023-11-19T00:49:46;14.70;99.90
19829;DHT22;10075;50.924;4.396;2023-11-19T00:52:14;14.60;99.90
19829;DHT22;10075;50.924;4.396;2023-11-19T00:54:41;14.60;99.90
19829;DHT22;10075;50.924;4.396;2023-11-19T00:57:09;14.50;99.90
19829;DHT22;10075;50.924;4.396;2023-11-19T00:59:36;14.60;99.90
19829;DHT22;10075;50.924;4.396;2023-11-19T01:02:03;14.60;99.90
19829;DHT22;10075;50.924;4.396;2023-11-19T01:04:33;14.60;99.90
19829;DHT22;10075;50.924;4.396;2023-11-19T01:07:01;14.60;99.90
19829;DHT22;10075;50.924;4.396;2023-11-19T01:09:29;14.60;99.90
19829;DHT22;10075;50.924;4.396;2023-11-19T01:11:57;14.60;99.90
19829;DHT22;10075;50.924;4.396;2023-11-19T01:14:27;14.60;99.90
19829;DHT22;10075;50.924;4.396;2023-11-19T01:16:54;14.70;99.90
19829;DHT22;10075;50.924;4.396;2023-11-19T01:19:21;14.60;99.90
19829;DHT22;10075;50.924;4.396;2023-11-19T01:21:48;14.60;99.90
19829;DHT22;10075;50.924;4.396;2023-11-19T01:24:15;14.60;99.90
19829;DHT22;10075;50.924;4.396;2023-11-19T01:26:43;14.50;99.90
19829;DHT22;10075;50.924;4.396;2023-11-19T01:29:11;14.40;99.90
19829;DHT22;10075;50.924;4.396;2023-11-19T01:31:40;14.30;99.90
19829;DHT22;10075;50.924;4.396;2023-11-19T01:34:08;14.20;99.90
19829;DHT22;10075;50.924;4.396;2023-11-19T01:36:35;14.10;99.90
19829;DHT22;10075;50.924;4.396;2023-11-19T01:39:02;14.00;99.90
19829;DHT22;10075;50.924;4.396;2023-11-19T01:41:30;14.00;99.90
19829;DHT22;10075;50.924;4.396;2023-11-19T01:44:00;14.00;99.90
19829;DHT22;10075;50.924;4.396;2023-11-19T01:46:27;13.90;99.90
19829;DHT22;10075;50.924;4.396;2023-11-19T01:48:55;13.80;99.90
19829;DHT22;10075;50.924;4.396;2023-11-19T01:51:22;13.70;99.90
19829;DHT22;10075;50.924;4.396;2023-11-19T01:53:51;13.70;99.90
19829;DHT22;10075;50.924;4.396;2023-11-19T01:56:18;13.70;99.90
19829;DHT22;10075;50.924;4.396;2023-11-19T01:58:48;13.70;99.90
19829;DHT22;10075;50.924;4.396;2023-11-19T02:01:16;13.70;99.90
19829;DHT22;10075;50.924;4.396;2023-11-19T02:03:43;13.70;99.90
19829;DHT22;10075;50.924;4.396;2023-11-19T02:06:12;13.70;99.90
19829;DHT22;10075;50.924;4.396;2023-11-19T02:08:39;13.80;99.90
19829;DHT22;10075;50.924;4.396;2023-11-19T02:11:06;13.90;99.90
19829;DHT22;10075;50.924;4.396;2023-11-19T02:13:34;13.90;99.90
19829;DHT22;10075;50.924;4.396;2023-11-19T02:16:02;13.90;99.90
19829;DHT22;10075;50.924;4.396;2023-11-19T02:18:30;13.70;99.90
19829;DHT22;10075;50.924;4.396;2023-11-19T02:20:57;13.80;99.90
19829;DHT22;10075;50.924;4.396;2023-11-19T02:23:27;13.90;99.90
19829;DHT22;10075;50.924;4.396;2023-11-19T02:26:05;14.00;99.90
19829;DHT22;10075;50.924;4.396;2023-11-19T02:28:36;13.90;99.90
19829;DHT22;10075;50.924;4.396;2023-11-19T02:31:04;14.00;99.90
19829;DHT22;10075;50.924;4.396;2023-11-19T02:33:35;14.10;99.90
19829;DHT22;10075;50.924;4.396;2023-11-19T02:36:02;14.00;99.90
19829;DHT22;10075;50.924;4.396;2023-11-19T02:38:29;14.10;99.90
19829;DHT22;10075;50.924;4.396;2023-11-19T02:40:56;14.00;99.90
19829;DHT22;10075;50.924;4.396;2023-11-19T02:43:23;14.00;99.90
19829;DHT22;10075;50.924;4.396;2023-11-19T02:45:52;14.00;99.90
19829;DHT22;10075;50.924;4.396;2023-11-19T02:48:21;14.00;99.90
19829;DHT22;10075;50.924;4.396;2023-11-19T02:50:48;14.00;99.90
19829;DHT22;10075;50.924;4.396;2023-11-19T02:53:15;14.00;99.90
19829;DHT22;10075;50.924;4.396;2023-11-19T02:55:43;14.00;99.90
19829;DHT22;10075;50.924;4.396;2023-11-19T02:58:14;14.00;99.90
19829;DHT22;10075;50.924;4.396;2023-11-19T03:00:49;14.00;99.90
19829;DHT22;10075;50.924;4.396;2023-11-19T03:03:25;13.90;99.90
19829;DHT22;10075;50.924;4.396;2023-11-19T03:06:04;13.90;99.90
19829;DHT22;10075;50.924;4.396;2023-11-19T03:08:31;14.00;99.90
19829;DHT22;10075;50.924;4.396;2023-11-19T03:10:59;13.90;99.90
19829;DHT22;10075;50.924;4.396;2023-11-19T03:13:26;13.80;99.90
19829;DHT22;10075;50.924;4.396;2023-11-19T03:15:53;13.70;99.90
19829;DHT22;10075;50.924;4.396;2023-11-19T03:18:20;13.70;99.90
19829;DHT22;10075;50.924;4.396;2023-11-19T03:20:49;13.60;99.90
19829;DHT22;10075;50.924;4.396;2023-11-19T03:23:17;13.60;99.90
19829;DHT22;10075;50.924;4.396;2023-11-19T03:25:44;13.50;99.90
19829;DHT22;10075;50.924;4.396;2023-11-19T03:28:11;13.40;99.90
19829;DHT22;10075;50.924;4.396;2023-11-19T03:30:39;13.50;99.90
19829;DHT22;10075;50.924;4.396;2023-11-19T03:33:05;13.50;99.90
19829;DHT22;10075;50.924;4.396;2023-11-19T03:35:32;13.50;99.90
19829;DHT22;10075;50.924;4.396;2023-11-19T03:38:01;13.60;99.90
19829;DHT22;10075;50.924;4.396;2023-11-19T03:40:28;13.60;99.90
19829;DHT22;10075;50.924;4.396;2023-11-19T03:42:56;13.50;99.90
19829;DHT22;10075;50.924;4.396;2023-11-19T03:45:23;13.40;99.90
19829;DHT22;10075;50.924;4.396;2023-11-19T03:47:50;13.40;99.90
19829;DHT22;10075;50.924;4.396;2023-11-19T03:50:17;13.40;99.90
19829;DHT22;10075;50.924;4.396;2023-11-19T03:52:45;13.30;99.90
19829;DHT22;10075;50.924;4.396;2023-11-19T03:55:14;13.20;99.90
19829;DHT22;10075;50.924;4.396;2023-11-19T03:57:41;13.20;99.90
19829;DHT22;10075;50.924;4.396;2023-11-19T04:00:08;13.20;99.90
19829;DHT22;10075;50.924;4.396;2023-11-19T04:02:39;13.10;99.90
19829;DHT22;10075;50.924;4.396;2023-11-19T04:05:07;13.20;99.90
19829;DHT22;10075;50.924;4.396;2023-11-19T04:07:35;13.20;99.90
19829;DHT22;10075;50.924;4.396;2023-11-19T04:10:02;13.20;99.90
19829;DHT22;10075;50.924;4.396;2023-11-19T04:12:31;13.20;99.90
19829;DHT22;10075;50.924;4.396;2023-11-19T04:14:57;13.20;99.90
19829;DHT22;10075;50.924;4.396;2023-11-19T04:17:25;13.20;99.90
19829;DHT22;10075;50.924;4.396;2023-11-19T04:19:51;13.20;99.90
19829;DHT22;10075;50.924;4.396;2023-11-19T04:22:18;13.20;99.90
19829;DHT22;10075;50.924;4.396;2023-11-19T04:24:45;13.20;99.90
19829;DHT22;10075;50.924;4.396;2023-11-19T04:27:13;13.30;99.90
19829;DHT22;10075;50.924;4.396;2023-11-19T04:29:42;13.40;99.90
19829;DHT22;10075;50.924;4.396;2023-11-19T04:32:09;13.30;99.90
19829;DHT22;10075;50.924;4.396;2023-11-19T04:34:35;13.10;99.90
19829;DHT22;10075;50.924;4.396;2023-11-19T04:37:03;13.10;99.90
19829;DHT22;10075;50.924;4.396;2023-11-19T04:39:30;13.00;99.90
19829;DHT22;10075;50.924;4.396;2023-11-19T04:41:57;13.00;99.90
19829;DHT22;10075;50.924;4.396;2023-11-19T04:44:25;12.90;99.90
19829;DHT22;10075;50.924;4.396;2023-11-19T04:46:53;13.00;99.90
19829;DHT22;10075;50.924;4.396;2023-11-19T04:49:20;12.90;99.90
19829;DHT22;10075;50.924;4.396;2023-11-19T04:51:47;12.90;99.90
19829;DHT22;10075;50.924;4.396;2023-11-19T04:54:14;12.90;99.90
19829;DHT22;10075;50.924;4.396;2023-11-19T04:56:45;12.90;99.90
19829;DHT22;10075;50.924;4.396;2023-11-19T04:59:12;12.90;99.90
19829;DHT22;10075;50.924;4.396;2023-11-19T05:01:39;12.90;99.90
19829;DHT22;10075;50.924;4.396;2023-11-19T05:04:08;12.80;99.90
19829;DHT22;10075;50.924;4.396;2023-11-19T05:06:35;12.80;99.90
19829;DHT22;10075;50.924;4.396;2023-11-19T05:09:03;12.80;99.90
19829;DHT22;10075;50.924;4.396;2023-11-19T05:11:33;12.70;99.90
19829;DHT22;10075;50.924;4.396;2023-11-19T05:14:00;12.60;99.90
19829;DHT22;10075;50.924;4.396;2023-11-19T05:16:26;12.60;99.90
19829;DHT22;10075;50.924;4.396;2023-11-19T05:18:53;12.50;99.90
19829;DHT22;10075;50.924;4.396;2023-11-19T05:21:22;12.60;99.90
19829;DHT22;10075;50.924;4.396;2023-11-19T05:23:49;12.60;99.90
19829;DHT22;10075;50.924;4.396;2023-11-19T05:26:20;12.70;99.90
19829;DHT22;10075;50.924;4.396;2023-11-19T05:28:47;12.70;99.90
19829;DHT22;10075;50.924;4.396;2023-11-19T05:31:15;12.70;99.90
19829;DHT22;10075;50.924;4.396;2023-11-19T05:33:42;12.70;99.90
19829;DHT22;10075;50.924;4.396;2023-11-19T05:36:11;12.70;99.90
19829;DHT22;10075;50.924;4.396;2023-11-19T05:38:39;12.60;99.90
19829;DHT22;10075;50.924;4.396;2023-11-19T05:41:06;12.50;99.90
19829;DHT22;10075;50.924;4.396;2023-11-19T05:43:33;12.60;99.90
19829;DHT22;10075;50.924;4.396;2023-11-19T05:46:01;12.50;99.90
19829;DHT22;10075;50.924;4.396;2023-11-19T05:48:28;12.50;99.90
19829;DHT22;10075;50.924;4.396;2023-11-19T05:50:55;12.60;99.90
19829;DHT22;10075;50.924;4.396;2023-11-19T05:53:22;12.60;99.90
19829;DHT22;10075;50.924;4.396;2023-11-19T05:55:51;12.60;99.90
19829;DHT22;10075;50.924;4.396;2023-11-19T05:58:23;12.50;99.90
19829;DHT22;10075;50.924;4.396;2023-11-19T06:00:51;12.50;99.90
19829;DHT22;10075;50.924;4.396;2023-11-19T06:03:18;12.40;99.90
19829;DHT22;10075;50.924;4.396;2023-11-19T06:05:45;12.40;99.90
19829;DHT22;10075;50.924;4.396;2023-11-19T06:08:12;12.40;99.90
19829;DHT22;10075;50.924;4.396;2023-11-19T06:10:40;12.40;99.90
19829;DHT22;10075;50.924;4.396;2023-11-19T06:13:08;12.40;99.90
19829;DHT22;10075;50.924;4.396;2023-11-19T06:15:37;12.40;99.90
19829;DHT22;10075;50.924;4.396;2023-11-19T06:18:04;12.40;99.90
19829;DHT22;10075;50.924;4.396;2023-11-19T06:20:32;12.50;99.90
19829;DHT22;10075;50.924;4.396;2023-11-19T06:22:59;12.60;99.90
19829;DHT22;10075;50.924;4.396;2023-11-19T06:25:26;12.50;99.90
19829;DHT22;10075;50.924;4.396;2023-11-19T06:27:54;12.50;99.90
19829;DHT22;10075;50.924;4.396;2023-11-19T06:30:23;12.50;99.90
19829;DHT22;10075;50.924;4.396;2023-11-19T06:32:51;12.50;99.90
19829;DHT22;10075;50.924;4.396;2023-11-19T06:35:18;12.50;99.90
19829;DHT22;10075;50.924;4.396;2023-11-19T06:37:45;12.50;99.90
19829;DHT22;10075;50.924;4.396;2023-11-19T06:40:12;12.50;99.90
19829;DHT22;10075;50.924;4.396;2023-11-19T06:42:41;12.50;99.90
19829;DHT22;10075;50.924;4.396;2023-11-19T06:45:08;12.50;99.90
19829;DHT22;10075;50.924;4.396;2023-11-19T06:47:37;12.50;99.90
19829;DHT22;10075;50.924;4.396;2023-11-19T06:50:05;12.50;99.90
19829;DHT22;10075;50.924;4.396;2023-11-19T06:52:32;12.40;99.90
19829;DHT22;10075;50.924;4.396;2023-11-19T06:54:59;12.40;99.90
19829;DHT22;10075;50.924;4.396;2023-11-19T06:57:26;12.30;99.90
19829;DHT22;10075;50.924;4.396;2023-11-19T06:59:55;12.30;99.90
19829;DHT22;10075;50.924;4.396;2023-11-19T07:02:22;12.30;99.90
19829;DHT22;10075;50.924;4.396;2023-11-19T07:04:50;12.30;99.90
19829;DHT22;10075;50.924;4.396;2023-11-19T07:07:17;12.30;99.90
19829;DHT22;10075;50.924;4.396;2023-11-19T07:09:45;12.40;99.90
19829;DHT22;10075;50.924;4.396;2023-11-19T07:12:13;12.30;99.90
19829;DHT22;10075;50.924;4.396;2023-11-19T07:14:41;12.30;99.90
19829;DHT22;10075;50.924;4.396;2023-11-19T07:17:08;12.40;99.90
19829;DHT22;10075;50.924;4.396;2023-11-19T07:19:36;12.30;99.90
19829;DHT22;10075;50.924;4.396;2023-11-19T07:22:05;12.30;99.90
19829;DHT22;10075;50.924;4.396;2023-11-19T07:24:33;12.30;99.90
19829;DHT22;10075;50.924;4.396;2023-11-19T07:27:00;12.30;99.90
19829;DHT22;10075;50.924;4.396;2023-11-19T07:29:29;12.30;99.90
19829;DHT22;10075;50.924;4.396;2023-11-19T07:31:57;12.40;99.90
19829;DHT22;10075;50.924;4.396;2023-11-19T07:34:24;12.50;99.90
19829;DHT22;10075;50.924;4.396;2023-11-19T07:36:51;12.40;99.90
19829;DHT22;10075;50.924;4.396;2023-11-19T07:39:20;12.40;99.90
19829;DHT22;10075;50.924;4.396;2023-11-19T07:41:47;12.50;99.90
19829;DHT22;10075;50.924;4.396;2023-11-19T07:44:15;12.50;99.90
19829;DHT22;10075;50.924;4.396;2023-11-19T07:46:42;12.40;99.90
19829;DHT22;10075;50.924;4.396;2023-11-19T07:49:10;12.50;99.90
19829;DHT22;10075;50.924;4.396;2023-11-19T07:51:37;12.50;99.90
19829;DHT22;10075;50.924;4.396;2023-11-19T07:54:04;12.50;99.90
19829;DHT22;10075;50.924;4.396;2023-11-19T07:56:33;12.60;99.90
19829;DHT22;10075;50.924;4.396;2023-11-19T07:59:01;12.60;99.90
19829;DHT22;10075;50.924;4.396;2023-11-19T08:01:28;12.70;99.90
19829;DHT22;10075;50.924;4.396;2023-11-19T08:03:54;12.70;99.90
19829;DHT22;10075;50.924;4.396;2023-11-19T08:06:22;12.80;99.90
19829;DHT22;10075;50.924;4.396;2023-11-19T08:08:49;12.80;99.90
19829;DHT22;10075;50.924;4.396;2023-11-19T08:11:16;12.90;99.90
19829;DHT22;10075;50.924;4.396;2023-11-19T08:13:44;12.90;99.90
19829;DHT22;10075;50.924;4.396;2023-11-19T08:16:11;12.90;99.90
19829;DHT22;10075;50.924;4.396;2023-11-19T08:18:38;12.90;99.90
19829;DHT22;10075;50.924;4.396;2023-11-19T08:21:07;13.00;99.90
19829;DHT22;10075;50.924;4.396;2023-11-19T08:23:35;13.00;99.90
19829;DHT22;10075;50.924;4.396;2023-11-19T08:26:02;13.00;99.90
19829;DHT22;10075;50.924;4.396;2023-11-19T08:28:30;12.90;99.90
19829;DHT22;10075;50.924;4.396;2023-11-19T08:31:01;12.90;99.90
19829;DHT22;10075;50.924;4.396;2023-11-19T08:33:28;12.90;99.90
19829;DHT22;10075;50.924;4.396;2023-11-19T08:35:55;12.80;99.90
19829;DHT22;10075;50.924;4.396;2023-11-19T08:38:22;12.80;99.90
19829;DHT22;10075;50.924;4.396;2023-11-19T08:40:49;12.80;99.90
19829;DHT22;10075;50.924;4.396;2023-11-19T08:43:17;12.90;99.90
19829;DHT22;10075;50.924;4.396;2023-11-19T08:45:44;13.00;99.90
19829;DHT22;10075;50.924;4.396;2023-11-19T08:48:12;13.10;99.90
19829;DHT22;10075;50.924;4.396;2023-11-19T08:50:39;13.10;99.90
19829;DHT22;10075;50.924;4.396;2023-11-19T08:53:06;13.10;99.90
19829;DHT22;10075;50.924;4.396;2023-11-19T08:55:33;13.20;99.90
19829;DHT22;10075;50.924;4.396;2023-11-19T08:58:00;13.20;99.90
19829;DHT22;10075;50.924;4.396;2023-11-19T09:00:27;13.20;99.90
19829;DHT22;10075;50.924;4.396;2023-11-19T09:02:55;13.20;99.90
19829;DHT22;10075;50.924;4.396;2023-11-19T09:05:25;13.20;99.90
19829;DHT22;10075;50.924;4.396;2023-11-19T09:07:52;13.00;99.90
19829;DHT22;10075;50.924;4.396;2023-11-19T09:10:19;12.90;99.90
19829;DHT22;10075;50.924;4.396;2023-11-19T09:12:45;12.80;99.90
19829;DHT22;10075;50.924;4.396;2023-11-19T09:15:13;12.90;99.90
19829;DHT22;10075;50.924;4.396;2023-11-19T09:17:40;13.00;99.90
19829;DHT22;10075;50.924;4.396;2023-11-19T09:20:08;13.00;99.90
19829;DHT22;10075;50.924;4.396;2023-11-19T09:22:39;13.00;99.90
19829;DHT22;10075;50.924;4.396;2023-11-19T09:25:07;13.00;99.90
19829;DHT22;10075;50.924;4.396;2023-11-19T09:27:34;13.00;99.90
19829;DHT22;10075;50.924;4.396;2023-11-19T09:30:02;13.10;99.90
19829;DHT22;10075;50.924;4.396;2023-11-19T09:32:29;13.10;99.90
19829;DHT22;10075;50.924;4.396;2023-11-19T09:34:56;13.10;99.90
19829;DHT22;10075;50.924;4.396;2023-11-19T09:37:23;13.20;99.90
19829;DHT22;10075;50.924;4.396;2023-11-19T09:39:51;13.40;99.90
19829;DHT22;10075;50.924;4.396;2023-11-19T09:42:19;13.50;99.90
19829;DHT22;10075;50.924;4.396;2023-11-19T09:44:47;13.50;99.90
19829;DHT22;10075;50.924;4.396;2023-11-19T09:47:17;13.60;99.90
19829;DHT22;10075;50.924;4.396;2023-11-19T09:49:45;13.80;99.90
19829;DHT22;10075;50.924;4.396;2023-11-19T09:52:13;13.90;99.90
19829;DHT22;10075;50.924;4.396;2023-11-19T09:54:40;14.00;99.90
19829;DHT22;10075;50.924;4.396;2023-11-19T09:57:10;14.00;99.90
19829;DHT22;10075;50.924;4.396;2023-11-19T09:59:39;14.10;99.90
19829;DHT22;10075;50.924;4.396;2023-11-19T10:02:07;14.20;99.90
19829;DHT22;10075;50.924;4.396;2023-11-19T10:04:35;14.30;99.90
19829;DHT22;10075;50.924;4.396;2023-11-19T10:07:03;14.30;99.90
19829;DHT22;10075;50.924;4.396;2023-11-19T10:09:30;14.20;99.90
19829;DHT22;10075;50.924;4.396;2023-11-19T10:11:57;14.10;99.90
19829;DHT22;10075;50.924;4.396;2023-11-19T10:14:26;14.00;99.90
19829;DHT22;10075;50.924;4.396;2023-11-19T10:16:55;14.10;99.90
19829;DHT22;10075;50.924;4.396;2023-11-19T10:19:22;14.10;99.90
19829;DHT22;10075;50.924;4.396;2023-11-19T10:21:49;14.20;99.90
19829;DHT22;10075;50.924;4.396;2023-11-19T10:24:16;14.20;99.90
19829;DHT22;10075;50.924;4.396;2023-11-19T10:26:43;14.20;99.90
19829;DHT22;10075;50.924;4.396;2023-11-19T10:29:13;14.30;99.90
19829;DHT22;10075;50.924;4.396;2023-11-19T10:31:55;14.60;99.90
19829;DHT22;10075;50.924;4.396;2023-11-19T10:34:25;14.70;99.90
19829;DHT22;10075;50.924;4.396;2023-11-19T10:36:52;14.60;99.90
19829;DHT22;10075;50.924;4.396;2023-11-19T10:39:20;14.70;99.90
19829;DHT22;10075;50.924;4.396;2023-11-19T10:41:49;14.70;99.90
19829;DHT22;10075;50.924;4.396;2023-11-19T10:44:31;14.70;99.90
19829;DHT22;10075;50.924;4.396;2023-11-19T10:47:06;14.70;99.90
19829;DHT22;10075;50.924;4.396;2023-11-19T10:49:34;14.70;99.90
19829;DHT22;10075;50.924;4.396;2023-11-19T10:52:03;14.60;99.90
19829;DHT22;10075;50.924;4.396;2023-11-19T10:54:34;14.50;99.90
19829;DHT22;10075;50.924;4.396;2023-11-19T10:57:02;14.50;99.90
19829;DHT22;10075;50.924;4.396;2023-11-19T10:59:31;14.70;99.90
19829;DHT22;10075;50.924;4.396;2023-11-19T11:02:00;14.80;99.90
19829;DHT22;10075;50.924;4.396;2023-11-19T11:04:33;15.00;99.90
19829;DHT22;10075;50.924;4.396;2023-11-19T11:07:07;15.10;99.90
19829;DHT22;10075;50.924;4.396;2023-11-19T11:09:35;15.00;99.90
19829;DHT22;10075;50.924;4.396;2023-11-19T11:12:04;14.90;99.90
19829;DHT22;10075;50.924;4.396;2023-11-19T11:14:34;15.10;99.90
19829;DHT22;10075;50.924;4.396;2023-11-19T11:17:06;15.20;99.90
19829;DHT22;10075;50.924;4.396;2023-11-19T11:19:36;15.30;99.90
19829;DHT22;10075;50.924;4.396;2023-11-19T11:22:04;15.30;99.90
19829;DHT22;10075;50.924;4.396;2023-11-19T11:25:08;15.30;99.90
19829;DHT22;10075;50.924;4.396;2023-11-19T11:28:05;15.30;99.90
19829;DHT22;10075;50.924;4.396;2023-11-19T11:30:51;15.30;99.90
19829;DHT22;10075;50.924;4.396;2023-11-19T11:33:32;15.20;99.90
19829;DHT22;10075;50.924;4.396;2023-11-19T11:36:11;14.90;99.90
19829;DHT22;10075;50.924;4.396;2023-11-19T11:38:40;14.90;99.90
19829;DHT22;10075;50.924;4.396;2023-11-19T11:41:19;14.80;99.90
19829;DHT22;10075;50.924;4.396;2023-11-19T11:43:47;14.70;99.90
19829;DHT22;10075;50.924;4.396;2023-11-19T11:49:25;14.70;99.90
19829;DHT22;10075;50.924;4.396;2023-11-19T11:52:01;14.70;99.90
19829;DHT22;10075;50.924;4.396;2023-11-19T11:54:29;14.70;99.90
19829;DHT22;10075;50.924;4.396;2023-11-19T11:57:11;14.80;99.90
19829;DHT22;10075;50.924;4.396;2023-11-19T11:59:48;15.10;99.90
19829;DHT22;10075;50.924;4.396;2023-11-19T12:02:17;15.10;99.90
19829;DHT22;10075;50.924;4.396;2023-11-19T12:04:47;15.20;99.90
19829;DHT22;10075;50.924;4.396;2023-11-19T12:07:18;15.30;99.90
19829;DHT22;10075;50.924;4.396;2023-11-19T12:09:51;15.40;99.90
19829;DHT22;10075;50.924;4.396;2023-11-19T12:12:21;15.50;99.90
19829;DHT22;10075;50.924;4.396;2023-11-19T12:15:05;15.70;99.90
19829;DHT22;10075;50.924;4.396;2023-11-19T12:17:48;15.80;99.90
19829;DHT22;10075;50.924;4.396;2023-11-19T12:20:16;15.70;99.90
19829;DHT22;10075;50.924;4.396;2023-11-19T12:22:46;15.60;99.90
19829;DHT22;10075;50.924;4.396;2023-11-19T12:25:15;15.30;99.90
19829;DHT22;10075;50.924;4.396;2023-11-19T12:27:45;15.20;99.90
19829;DHT22;10075;50.924;4.396;2023-11-19T12:30:12;15.00;99.90
19829;DHT22;10075;50.924;4.396;2023-11-19T12:32:44;15.00;99.90
19829;DHT22;10075;50.924;4.396;2023-11-19T12:35:11;15.00;99.90
19829;DHT22;10075;50.924;4.396;2023-11-19T12:37:43;14.90;99.90
19829;DHT22;10075;50.924;4.396;2023-11-19T12:40:19;14.80;99.90
19829;DHT22;10075;50.924;4.396;2023-11-19T12:42:47;14.90;99.90
19829;DHT22;10075;50.924;4.396;2023-11-19T12:45:14;14.80;99.90
19829;DHT22;10075;50.924;4.396;2023-11-19T12:47:42;14.80;99.90
19829;DHT22;10075;50.924;4.396;2023-11-19T12:50:10;14.80;99.90
19829;DHT22;10075;50.924;4.396;2023-11-19T12:52:37;14.70;99.90
19829;DHT22;10075;50.924;4.396;2023-11-19T12:55:06;14.70;99.90
19829;DHT22;10075;50.924;4.396;2023-11-19T12:57:52;14.70;99.90
19829;DHT22;10075;50.924;4.396;2023-11-19T13:00:21;14.70;99.90
19829;DHT22;10075;50.924;4.396;2023-11-19T13:02:49;14.80;99.90
19829;DHT22;10075;50.924;4.396;2023-11-19T13:05:27;14.80;99.90
19829;DHT22;10075;50.924;4.396;2023-11-19T13:08:01;14.90;99.90
19829;DHT22;10075;50.924;4.396;2023-11-19T13:10:31;14.90;99.90
19829;DHT22;10075;50.924;4.396;2023-11-19T13:13:04;14.90;99.90
19829;DHT22;10075;50.924;4.396;2023-11-19T13:15:31;14.90;99.90
19829;DHT22;10075;50.924;4.396;2023-11-19T13:17:58;14.80;99.90
19829;DHT22;10075;50.924;4.396;2023-11-19T13:20:25;14.90;99.90
19829;DHT22;10075;50.924;4.396;2023-11-19T13:22:56;14.80;99.90
19829;DHT22;10075;50.924;4.396;2023-11-19T13:25:23;14.80;99.90
19829;DHT22;10075;50.924;4.396;2023-11-19T13:27:50;14.70;99.90
19829;DHT22;10075;50.924;4.396;2023-11-19T13:30:18;14.70;99.90
19829;DHT22;10075;50.924;4.396;2023-11-19T13:32:45;14.70;99.90
19829;DHT22;10075;50.924;4.396;2023-11-19T13:35:12;14.80;99.90
19829;DHT22;10075;50.924;4.396;2023-11-19T13:37:39;14.90;99.90
19829;DHT22;10075;50.924;4.396;2023-11-19T13:40:07;14.90;99.90
19829;DHT22;10075;50.924;4.396;2023-11-19T13:42:36;14.90;99.90
19829;DHT22;10075;50.924;4.396;2023-11-19T13:45:07;14.80;99.90
19829;DHT22;10075;50.924;4.396;2023-11-19T13:47:38;14.70;99.90
19829;DHT22;10075;50.924;4.396;2023-11-19T13:50:08;14.60;99.90
19829;DHT22;10075;50.924;4.396;2023-11-19T13:52:35;14.60;99.90
19829;DHT22;10075;50.924;4.396;2023-11-19T13:55:05;14.50;99.90
19829;DHT22;10075;50.924;4.396;2023-11-19T13:57:32;14.50;99.90
19829;DHT22;10075;50.924;4.396;2023-11-19T14:00:00;14.40;99.90
19829;DHT22;10075;50.924;4.396;2023-11-19T14:02:28;14.40;99.90
19829;DHT22;10075;50.924;4.396;2023-11-19T14:04:57;14.50;99.90
19829;DHT22;10075;50.924;4.396;2023-11-19T14:07:24;14.50;99.90
19829;DHT22;10075;50.924;4.396;2023-11-19T14:09:51;14.50;99.90
19829;DHT22;10075;50.924;4.396;2023-11-19T14:12:18;14.60;99.90
19829;DHT22;10075;50.924;4.396;2023-11-19T14:14:44;14.60;99.90
19829;DHT22;10075;50.924;4.396;2023-11-19T14:17:11;14.50;99.90
19829;DHT22;10075;50.924;4.396;2023-11-19T14:19:38;14.50;99.90
19829;DHT22;10075;50.924;4.396;2023-11-19T14:22:07;14.50;99.90
19829;DHT22;10075;50.924;4.396;2023-11-19T14:24:34;14.40;99.90
19829;DHT22;10075;50.924;4.396;2023-11-19T14:27:01;14.30;99.90
19829;DHT22;10075;50.924;4.396;2023-11-19T14:29:28;14.10;99.90
19829;DHT22;10075;50.924;4.396;2023-11-19T14:31:56;14.10;99.90
19829;DHT22;10075;50.924;4.396;2023-11-19T14:34:24;14.00;99.90
19829;DHT22;10075;50.924;4.396;2023-11-19T14:36:51;13.90;99.90
19829;DHT22;10075;50.924;4.396;2023-11-19T14:39:20;13.90;99.90
19829;DHT22;10075;50.924;4.396;2023-11-19T14:41:47;13.90;99.90
19829;DHT22;10075;50.924;4.396;2023-11-19T14:44:15;13.80;99.90
19829;DHT22;10075;50.924;4.396;2023-11-19T14:46:42;13.80;99.90
19829;DHT22;10075;50.924;4.396;2023-11-19T14:49:09;13.80;99.90
19829;DHT22;10075;50.924;4.396;2023-11-19T14:51:36;13.80;99.90
19829;DHT22;10075;50.924;4.396;2023-11-19T14:54:04;13.80;99.90
19829;DHT22;10075;50.924;4.396;2023-11-19T14:56:32;13.80;99.90
19829;DHT22;10075;50.924;4.396;2023-11-19T14:58:59;13.80;99.90
19829;DHT22;10075;50.924;4.396;2023-11-19T15:01:26;13.80;99.90
19829;DHT22;10075;50.924;4.396;2023-11-19T15:03:54;13.90;99.90
19829;DHT22;10075;50.924;4.396;2023-11-19T15:06:23;13.90;99.90
19829;DHT22;10075;50.924;4.396;2023-11-19T15:08:51;13.90;99.90
19829;DHT22;10075;50.924;4.396;2023-11-19T15:11:18;14.00;99.90
19829;DHT22;10075;50.924;4.396;2023-11-19T15:13:46;13.90;99.90
19829;DHT22;10075;50.924;4.396;2023-11-19T15:16:15;14.00;99.90
19829;DHT22;10075;50.924;4.396;2023-11-19T15:18:48;13.90;99.90
19829;DHT22;10075;50.924;4.396;2023-11-19T15:21:15;13.90;99.90
19829;DHT22;10075;50.924;4.396;2023-11-19T15:23:42;13.80;99.90
19829;DHT22;10075;50.924;4.396;2023-11-19T15:26:09;13.80;99.90
19829;DHT22;10075;50.924;4.396;2023-11-19T15:28:37;13.80;99.90
19829;DHT22;10075;50.924;4.396;2023-11-19T15:31:05;13.80;99.90
19829;DHT22;10075;50.924;4.396;2023-11-19T15:33:32;13.80;99.90
19829;DHT22;10075;50.924;4.396;2023-11-19T15:35:59;13.80;99.90
19829;DHT22;10075;50.924;4.396;2023-11-19T15:38:28;13.90;99.90
19829;DHT22;10075;50.924;4.396;2023-11-19T15:40:55;13.90;99.90